Time;durP1;ratioP1;P1;durP2;ratioP2;P2;SDS_P1;SDS_P2;PMS_P1;PMS_P2;Temp;Humidity;BMP_temperature;BMP_pressure;BME280_temperature;BME280_humidity;BME280_pressure;Samples;Min_cycle;Max_cycle;Signal;HPM_P1;HPM_P2
2023/04/01 00:01:14;;;;;;;36.42;18.77;;;;;;;11.04;96.14;99607.81;4972810;28;20064;-75
2023/04/01 00:03:43;;;;;;;36.05;20.95;;;;;;;10.89;97.64;99612.50;4972277;28;20058;-75
2023/04/01 00:06:16;;;;;;;35.90;19.60;;;;;;;11.04;97.20;99605.88;4972360;28;20055;-75
2023/04/01 00:08:44;;;;;;;34.30;19.65;;;;;;;11.04;96.93;99608.63;4971904;28;20059;-76
2023/04/01 00:11:12;;;;;;;33.15;18.83;;;;;;;11.03;96.71;99623.41;4971941;28;20084;-75
2023/04/01 00:13:41;;;;;;;36.58;19.38;;;;;;;10.88;96.08;99619.91;4972077;28;20375;-75
2023/04/01 00:16:09;;;;;;;32.78;18.27;;;;;;;10.81;96.66;99621.44;4972080;28;20418;-75
2023/04/01 00:18:49;;;;;;;41.40;19.67;;;;;;;10.67;97.50;99622.25;4975803;28;20058;-75
2023/04/01 00:21:20;;;;;;;36.53;18.92;;;;;;;10.60;97.56;99624.56;4974230;28;20054;-75
2023/04/01 00:23:50;;;;;;;33.42;18.08;;;;;;;10.50;98.86;99622.84;4993247;28;20061;-75
2023/04/01 00:26:20;;;;;;;33.25;17.65;;;;;;;10.38;99.29;99631.53;4994686;28;20497;-76
2023/04/01 00:28:50;;;;;;;31.40;18.48;;;;;;;10.25;99.97;99626.81;4995089;28;20062;-76
2023/04/01 00:31:18;;;;;;;34.50;18.45;;;;;;;10.29;99.87;99625.09;4977550;28;20058;-75
2023/04/01 00:33:46;;;;;;;32.83;18.42;;;;;;;10.16;100.00;99619.31;4995505;28;20046;-75
2023/04/01 00:36:17;;;;;;;33.63;18.30;;;;;;;10.19;99.97;99635.13;4994646;28;20057;-75
2023/04/01 00:38:46;;;;;;;40.05;18.58;;;;;;;10.29;100.00;99636.06;4981692;28;20065;-76
2023/04/01 00:41:18;;;;;;;30.92;17.45;;;;;;;10.21;100.00;99632.06;4976024;28;20039;-75
2023/04/01 00:43:49;;;;;;;28.33;16.85;;;;;;;10.19;100.00;99635.13;4985903;28;20062;-76
2023/04/01 00:46:17;;;;;;;29.33;16.65;;;;;;;10.24;100.00;99638.88;4977674;28;20050;-76
2023/04/01 00:48:53;;;;;;;29.77;17.27;;;;;;;10.29;99.86;99627.84;4994175;28;20057;-75
2023/04/01 00:51:29;;;;;;;33.45;16.85;;;;;;;10.18;100.00;99640.91;4977818;28;20053;-75
2023/04/01 00:54:01;;;;;;;32.55;17.23;;;;;;;10.34;99.97;99642.25;4994483;28;20057;-75
2023/04/01 00:56:39;;;;;;;37.72;17.75;;;;;;;10.32;99.54;99644.47;4978195;28;20049;-75
2023/04/01 00:59:13;;;;;;;31.02;17.88;;;;;;;10.35;99.94;99643.03;4977509;28;20061;-76
2023/04/01 01:01:41;;;;;;;28.17;17.10;;;;;;;10.34;100.00;99641.44;4977311;28;20069;-76
2023/04/01 01:04:25;;;;;;;33.40;17.30;;;;;;;10.18;100.00;99644.44;4976917;28;20053;-76
2023/04/01 01:07:02;;;;;;;34.13;18.38;;;;;;;10.28;100.00;99645.38;4976910;28;20047;-75
2023/04/01 01:09:48;;;;;;;38.65;17.67;;;;;;;10.43;99.67;99645.13;4977440;28;20131;-75
2023/04/01 01:12:15;;;;;;;30.33;17.45;;;;;;;10.45;99.85;99642.06;4977431;28;20050;-75
2023/04/01 01:15:03;;;;;;;33.63;18.17;;;;;;;10.44;100.00;99633.06;4994247;28;20054;-76
2023/04/01 01:17:54;;;;;;;33.03;18.48;;;;;;;10.36;100.00;99639.19;4946498;28;20056;-76
2023/04/01 01:20:47;;;;;;;33.47;19.35;;;;;;;10.34;100.00;99642.25;4984736;28;20055;-75
2023/04/01 01:23:36;;;;;;;35.53;20.83;;;;;;;10.41;100.00;99641.03;4957388;28;20058;-75
2023/04/01 01:26:39;;;;;;;35.85;19.42;;;;;;;10.36;100.00;99636.47;4956921;28;20054;-76
2023/04/01 01:29:43;;;;;;;37.90;21.23;;;;;;;10.16;100.00;99643.94;4936097;28;20780;-76
2023/04/01 01:32:29;;;;;;;37.88;20.73;;;;;;;10.30;100.00;99632.19;4957053;28;20506;-76
2023/04/01 01:35:26;;;;;;;37.78;21.42;;;;;;;10.10;100.00;99642.38;4957767;28;20485;-75
2023/04/01 01:37:59;;;;;;;45.22;24.45;;;;;;;9.88;100.00;99643.84;4973940;28;20054;-75
2023/04/01 01:40:29;;;;;;;43.08;25.63;;;;;;;9.97;100.00;99634.97;4956863;28;20058;-75
2023/04/01 01:43:03;;;;;;;49.17;25.85;;;;;;;9.77;100.00;99625.97;4957606;28;20400;-76
2023/04/01 01:45:35;;;;;;;45.92;25.63;;;;;;;9.90;100.00;99638.91;4956853;28;20058;-75
2023/04/01 01:48:05;;;;;;;51.65;29.25;;;;;;;9.91;100.00;99639.69;4957449;28;20387;-75
2023/04/01 01:50:33;;;;;;;51.42;27.77;;;;;;;9.82;100.00;99634.91;4974611;28;20386;-75
2023/04/01 01:53:07;;;;;;;52.60;29.20;;;;;;;9.78;100.00;99625.69;4957281;28;20043;-75
2023/04/01 01:55:39;;;;;;;51.17;29.05;;;;;;;9.86;100.00;99628.84;4957258;28;20486;-75
2023/04/01 01:58:13;;;;;;;49.83;27.38;;;;;;;9.89;100.00;99620.06;4956790;28;20047;-75
2023/04/01 02:00:47;;;;;;;50.20;27.48;;;;;;;9.94;100.00;99620.78;4956922;28;20521;-76
2023/04/01 02:03:17;;;;;;;49.67;28.63;;;;;;;9.92;100.00;99628.47;4956344;28;20059;-75
2023/04/01 02:05:45;;;;;;;50.80;28.35;;;;;;;9.89;100.00;99623.63;4956963;28;20050;-76
2023/04/01 02:08:21;;;;;;;49.42;29.15;;;;;;;9.92;100.00;99627.69;4956270;28;20051;-76
2023/04/01 02:10:52;;;;;;;;;;;;;;;9.86;100.00;99631.56;4974760;28;20043;-75
2023/04/01 02:13:34;;;;;;;50.70;28.13;;;;;;;9.72;100.00;99626.09;4956993;28;19944;-76
2023/04/01 02:16:08;;;;;;;47.92;26.98;;;;;;;9.67;100.00;99625.03;4974082;28;20054;-76
2023/04/01 02:18:38;;;;;;;53.67;27.35;;;;;;;9.74;100.00;99632.88;4956368;28;20066;-76
2023/04/01 02:21:08;;;;;;;47.75;27.85;;;;;;;9.78;100.00;99635.81;4973448;28;20051;-75
2023/04/01 02:23:38;;;;;;;48.53;27.17;;;;;;;9.77;100.00;99628.72;4956230;28;20058;-76
2023/04/01 02:26:08;;;;;;;48.80;27.05;;;;;;;9.63;100.00;99621.28;4956015;28;20497;-76
2023/04/01 02:28:38;;;;;;;42.80;24.50;;;;;;;9.77;100.00;99634.19;4956608;28;20058;-76
2023/04/01 02:31:10;;;;;;;51.25;26.75;;;;;;;9.77;100.00;99635.00;4956654;28;20050;-76
2023/04/01 02:33:39;;;;;;;43.47;25.48;;;;;;;9.97;100.00;99632.25;4956634;28;20049;-75
2023/04/01 02:36:13;;;;;;;42.90;25.25;;;;;;;9.82;100.00;99620.44;4972656;28;20046;-76
2023/04/01 02:38:42;;;;;;;48.08;25.52;;;;;;;9.79;100.00;99621.84;4956116;28;20051;-75
2023/04/01 02:41:11;;;;;;;43.40;25.02;;;;;;;9.86;100.00;99615.19;4973589;28;20047;-76
2023/04/01 02:43:39;;;;;;;48.92;24.17;;;;;;;9.92;100.00;99612.06;4956456;28;20051;-75
2023/04/01 02:46:07;;;;;;;46.72;24.25;;;;;;;9.94;100.00;99623.50;4972918;28;20051;-75
2023/04/01 02:48:35;;;;;;;36.08;22.38;;;;;;;9.93;100.00;99630.09;4955975;28;20042;-76
2023/04/01 02:51:03;;;;;;;41.15;24.42;;;;;;;9.93;100.00;99634.75;4973008;28;20058;-75
2023/04/01 02:53:31;;;;;;;40.40;23.88;;;;;;;9.89;100.00;99645.47;4973001;28;20486;-75
2023/04/01 02:55:59;;;;;;;38.30;22.83;;;;;;;9.64;100.00;99642.00;4955802;28;20051;-76
2023/04/01 02:58:27;;;;;;;39.15;22.98;;;;;;;9.56;100.00;99637.25;4956014;28;20059;-76
2023/04/01 03:00:55;;;;;;;42.90;23.13;;;;;;;9.40;100.00;99645.66;4955689;28;20054;-75
2023/04/01 03:03:23;;;;;;;37.28;21.45;;;;;;;9.28;100.00;99646.09;4973606;28;20039;-75
2023/04/01 03:05:51;;;;;;;36.67;21.98;;;;;;;9.26;100.00;99647.50;4956177;28;20398;-75
2023/04/01 03:08:19;;;;;;;38.58;22.65;;;;;;;9.14;100.00;99651.47;4972403;28;20054;-75
2023/04/01 03:10:47;;;;;;;40.65;23.17;;;;;;;8.94;100.00;99662.66;4956287;28;20058;-76
2023/04/01 03:13:15;;;;;;;45.33;23.48;;;;;;;8.99;100.00;99649.75;4972684;28;20046;-76
2023/04/01 03:15:43;;;;;;;42.58;23.40;;;;;;;9.04;100.00;99650.78;4955918;28;20042;-75
2023/04/01 03:18:11;;;;;;;40.95;24.02;;;;;;;9.07;100.00;99640.09;4973388;28;20055;-75
2023/04/01 03:20:39;;;;;;;43.60;23.20;;;;;;;9.05;100.00;99636.84;4972596;28;20498;-76
2023/04/01 03:23:08;;;;;;;40.67;22.50;;;;;;;9.02;100.00;99642.88;4972188;28;20490;-75
2023/04/01 03:25:36;;;;;;;37.53;23.30;;;;;;;9.11;100.00;99654.78;4955387;28;20062;-76
2023/04/01 03:28:05;;;;;;;42.83;25.63;;;;;;;9.17;100.00;99654.69;4972744;28;20059;-76
2023/04/01 03:30:33;;;;;;;47.33;27.23;;;;;;;9.16;100.00;99653.09;4971495;28;20437;-76
2023/04/01 03:33:01;;;;;;;47.28;26.08;;;;;;;9.17;100.00;99638.31;4972512;28;20058;-75
2023/04/01 03:35:32;;;;;;;41.30;26.60;;;;;;;9.08;100.00;99628.06;4955621;28;20051;-76
2023/04/01 03:38:00;;;;;;;45.97;25.95;;;;;;;8.84;100.00;99641.72;4955450;28;20058;-76
2023/04/01 03:40:28;;;;;;;41.38;24.02;;;;;;;8.74;100.00;99654.41;4973262;28;20043;-76
2023/04/01 03:42:56;;;;;;;41.35;23.83;;;;;;;8.65;100.00;99660.78;4972607;28;20047;-76
2023/04/01 03:45:24;;;;;;;46.13;24.33;;;;;;;8.47;100.00;99657.69;4955788;28;20062;-76
2023/04/01 03:47:52;;;;;;;39.80;23.05;;;;;;;8.48;100.00;99648.38;4955856;28;20058;-76
2023/04/01 03:50:20;;;;;;;41.03;23.25;;;;;;;8.48;100.00;99659.28;4955018;28;20047;-76
2023/04/01 03:52:48;;;;;;;44.85;23.58;;;;;;;8.40;100.00;99668.91;4975329;28;20050;-75
2023/04/01 03:55:17;;;;;;;39.08;23.98;;;;;;;8.43;100.00;99670.25;4958930;28;20054;-75
2023/04/01 03:57:47;;;;;;;45.80;24.90;;;;;;;8.42;100.00;99668.63;4959297;28;20062;-76
2023/04/01 04:00:18;;;;;;;36.50;21.85;;;;;;;8.33;100.00;99669.22;4958671;28;20051;-75
2023/04/01 04:02:51;;;;;;;43.45;24.92;;;;;;;8.18;100.00;99672.13;4959419;28;20051;-76
2023/04/01 04:05:26;;;;;;;40.72;24.08;;;;;;;8.11;100.00;99679.81;4958631;28;20394;-76
2023/04/01 04:07:54;;;;;;;39.55;23.33;;;;;;;8.21;100.00;99674.25;4958565;28;20054;-76
2023/04/01 04:10:23;;;;;;;40.05;23.25;;;;;;;8.29;100.00;99681.84;4959200;28;20058;-76
2023/04/01 04:12:51;;;;;;;42.58;23.38;;;;;;;8.33;100.00;99677.41;4976498;28;20050;-76
2023/04/01 04:15:22;;;;;;;43.47;24.95;;;;;;;8.36;100.00;99680.69;4959085;28;20062;-76
2023/04/01 04:17:50;;;;;;;40.85;23.05;;;;;;;8.18;100.00;99672.91;4975952;28;20058;-76
2023/04/01 04:20:18;;;;;;;39.47;23.63;;;;;;;8.01;100.00;99681.50;4975793;28;20063;-76
2023/04/01 04:22:46;;;;;;;38.17;22.02;;;;;;;8.03;100.00;99671.13;4958478;28;20051;-75
2023/04/01 04:25:14;;;;;;;37.45;22.70;;;;;;;8.00;100.00;99673.63;4958690;28;20098;-76
2023/04/01 04:27:42;;;;;;;37.80;21.95;;;;;;;7.93;100.00;99676.69;4958798;28;20059;-76
2023/04/01 04:30:13;;;;;;;36.88;22.05;;;;;;;7.90;100.00;99685.41;4976709;28;20035;-76
2023/04/01 04:32:41;;;;;;;40.38;22.27;;;;;;;7.87;100.00;99684.06;4957790;28;20051;-75
2023/04/01 04:35:11;;;;;;;37.60;20.70;;;;;;;7.77;100.00;99692.34;4957706;28;20050;-76
2023/04/01 04:37:40;;;;;;;41.30;22.52;;;;;;;7.73;100.00;99681.16;4957344;28;20055;-76
2023/04/01 04:40:08;;;;;;;34.53;21.30;;;;;;;7.82;100.00;99691.47;4958499;28;20047;-76
2023/04/01 04:42:36;;;;;;;38.80;21.40;;;;;;;7.75;100.00;99679.00;4958088;28;20050;-76
2023/04/01 04:45:09;;;;;;;38.60;21.95;;;;;;;7.80;100.00;99675.41;4975867;28;20061;-76
2023/04/01 04:47:40;;;;;;;37.10;21.27;;;;;;;7.82;100.00;99692.28;4957907;28;20059;-74
2023/04/01 04:50:09;;;;;;;41.75;23.45;;;;;;;7.85;100.00;99688.16;4958348;28;20051;-74
2023/04/01 04:52:39;;;;;;;42.58;23.98;;;;;;;7.68;100.00;99694.84;4958471;28;20390;-73
2023/04/01 04:55:07;;;;;;;39.60;21.25;;;;;;;7.81;100.00;99690.66;4957468;28;20042;-72
2023/04/01 04:57:35;;;;;;;38.05;22.02;;;;;;;8.00;100.00;99698.13;4957907;28;20059;-73
2023/04/01 05:00:04;;;;;;;37.97;22.70;;;;;;;8.12;100.00;99703.25;4957363;28;20055;-73
2023/04/01 05:03:01;;;;;;;42.78;23.10;;;;;;;7.98;100.00;99700.34;4964332;28;20050;-73
2023/04/01 05:05:29;;;;;;;38.63;21.27;;;;;;;7.93;100.00;99718.34;4958126;28;20042;-73
2023/04/01 05:07:58;;;;;;;37.22;20.75;;;;;;;7.84;100.00;99719.25;4957909;28;20047;-73
2023/04/01 05:10:26;;;;;;;34.08;20.70;;;;;;;7.92;100.00;99718.66;4957320;28;20074;-73
2023/04/01 05:12:54;;;;;;;37.92;22.13;;;;;;;7.97;100.00;99696.78;4956729;28;20406;-73
2023/04/01 05:15:23;;;;;;;35.35;21.55;;;;;;;7.96;100.00;99694.38;4957634;28;20427;-74
2023/04/01 05:17:51;;;;;;;37.70;21.55;;;;;;;7.99;100.00;99694.63;4957263;28;20059;-73
2023/04/01 05:20:19;;;;;;;36.00;19.90;;;;;;;7.84;100.00;99692.00;4957832;28;20047;-73
2023/04/01 05:22:47;;;;;;;40.13;21.23;;;;;;;7.97;100.00;99702.25;4974586;28;20055;-73
2023/04/01 05:25:15;;;;;;;37.97;20.45;;;;;;;8.06;100.00;99711.44;4956885;28;20489;-73
2023/04/01 05:27:43;;;;;;;36.97;20.63;;;;;;;8.12;100.00;99703.25;4974344;28;20051;-74
2023/04/01 05:30:11;;;;;;;37.63;20.88;;;;;;;8.26;100.00;99697.94;4974258;28;20051;-74
2023/04/01 05:32:57;;;;;;;33.97;20.05;;;;;;;8.23;100.00;99704.78;4954372;29;20058;-74
2023/04/01 05:35:25;;;;;;;32.63;18.70;;;;;;;8.34;100.00;99716.41;4938424;29;20051;-73
2023/04/01 05:37:53;;;;;;;28.35;18.65;;;;;;;8.24;100.00;99709.13;4934380;29;20040;-74
2023/04/01 05:40:21;;;;;;;31.73;18.88;;;;;;;8.05;100.00;99718.00;4959886;28;20529;-75
2023/04/01 05:42:49;;;;;;;30.77;17.75;;;;;;;8.06;100.00;99725.06;4953790;29;20059;-73
2023/04/01 05:45:17;;;;;;;32.35;17.50;;;;;;;8.18;100.00;99713.00;4938173;29;20055;-73
2023/04/01 05:48:05;;;;;;;30.20;19.00;;;;;;;8.50;100.00;99708.91;4947116;29;20521;-73
2023/04/01 05:50:41;;;;;;;30.40;17.30;;;;;;;8.53;100.00;99708.38;4937811;29;20044;-73
2023/04/01 05:53:10;;;;;;;27.92;16.65;;;;;;;8.61;100.00;99717.84;4938107;29;20043;-73
2023/04/01 05:55:42;;;;;;;30.60;16.90;;;;;;;8.78;100.00;99728.28;4953213;29;20398;-73
2023/04/01 05:58:10;;;;;;;31.80;16.95;;;;;;;8.96;100.00;99739.56;4937554;29;20047;-73
2023/04/01 06:00:40;;;;;;;31.05;16.80;;;;;;;9.05;99.68;99728.84;4953465;29;20051;-73
2023/04/01 06:03:08;;;;;;;28.98;17.08;;;;;;;9.25;99.45;99722.31;4953241;29;20055;-73
2023/04/01 06:05:41;;;;;;;32.10;17.33;;;;;;;9.49;97.61;99726.94;4953139;29;20058;-73
2023/04/01 06:08:15;;;;;;;29.10;16.73;;;;;;;9.75;97.71;99723.84;4942459;29;20069;-73
2023/04/01 06:10:59;;;;;;;38.67;16.92;;;;;;;9.65;96.59;99736.56;4954139;29;20043;-73
2023/04/01 06:13:33;;;;;;;26.83;16.15;;;;;;;9.73;97.33;99742.47;4951858;28;20043;-73
2023/04/01 06:16:18;;;;;;;31.92;17.23;;;;;;;9.88;97.32;99739.47;4952789;29;20054;-73
2023/04/01 06:19:14;;;;;;;33.92;18.23;;;;;;;9.81;98.01;99722.66;4951735;29;20058;-73
2023/04/01 06:22:06;;;;;;;32.13;19.50;;;;;;;9.73;98.61;99720.59;4927877;29;20082;-73
2023/04/01 06:24:40;;;;;;;28.67;18.08;;;;;;;9.74;98.59;99727.69;4952719;29;20047;-73
2023/04/01 06:27:39;;;;;;;33.55;17.80;;;;;;;9.77;98.68;99738.00;4923770;29;20056;-73
2023/04/01 06:30:38;;;;;;;36.08;18.73;;;;;;;10.13;97.08;99718.34;4917082;29;20373;-74
2023/04/01 06:33:31;;;;;;;33.63;18.38;;;;;;;10.26;97.67;99740.56;4917771;29;20055;-74
2023/04/01 06:36:05;;;;;;;34.03;18.30;;;;;;;10.33;97.58;99746.47;4934179;29;20458;-74
2023/04/01 06:38:42;;;;;;;43.40;20.00;;;;;;;10.40;98.35;99746.88;4922245;29;20047;-74
2023/04/01 06:41:35;;;;;;;40.50;23.00;;;;;;;10.74;99.19;99751.25;4951755;29;20399;-74
2023/04/01 06:44:25;;;;;;;45.60;22.73;;;;;;;11.39;96.47;99753.31;4935842;29;20113;-74
2023/04/01 06:47:37;;;;;;;42.97;22.83;;;;;;;11.73;94.29;99748.50;4953530;29;20051;-75
2023/04/01 06:51:12;;;;;;;40.83;21.67;;;;;;;12.07;94.07;99758.97;4912016;29;20126;-74
2023/04/01 06:54:21;;;;;;;44.83;22.30;;;;;;;12.31;92.61;99752.38;4901291;29;20063;-75
2023/04/01 06:57:42;;;;;;;43.75;23.88;;;;;;;12.48;91.86;99745.41;4953464;29;20047;-75
2023/04/01 07:00:26;;;;;;;38.13;21.77;;;;;;;12.33;92.48;99750.13;4953747;29;20047;-75
2023/04/01 07:03:18;;;;;;;40.72;20.60;;;;;;;12.50;90.21;99754.94;4926585;29;20059;-96
2023/04/01 07:05:46;;;;;;;38.40;21.52;;;;;;;12.86;88.25;99766.13;4941866;29;20058;-95
2023/04/01 07:08:28;;;;;;;40.60;20.77;;;;;;;12.86;87.56;99766.91;4932494;29;20078;-96
2023/04/01 07:11:37;;;;;;;38.03;20.45;;;;;;;13.06;87.44;99763.94;4923038;29;20051;-96
2023/04/01 07:14:35;;;;;;;38.40;21.15;;;;;;;13.13;86.97;99775.28;4985904;23;20057;-96
2023/04/01 07:17:32;;;;;;;35.75;20.20;;;;;;;13.26;87.07;99768.06;5013567;28;20049;-96
2023/04/01 07:20:22;;;;;;;37.67;21.63;;;;;;;13.29;86.64;99772.91;4990196;28;20057;-96
2023/04/01 07:26:43;;;;;;;39.13;19.58;;;;;;;13.39;85.45;99769.88;4919233;29;20053;-96
2023/04/01 07:29:38;;;;;;;38.63;20.67;;;;;;;13.40;84.98;99763.25;4916872;29;20060;-96
2023/04/01 07:36:47;;;;;;;33.50;18.58;;;;;;;13.82;80.75;99784.06;5316164;23;20058;-93
2023/04/01 07:39:55;;;;;;;32.60;18.15;;;;;;;14.12;78.65;99781.47;4961081;28;20065;-96
2023/04/01 07:43:05;;;;;;;31.65;16.13;;;;;;;13.95;77.94;99787.78;4971034;28;20046;-95
2023/04/01 07:45:59;;;;;;;27.40;16.30;;;;;;;14.24;76.87;99789.91;4958791;23;20055;-96
2023/04/01 08:08:14;;;;;;;28.58;14.65;;;;;;;14.58;74.11;99790.22;5965931;23;20018;-96
2023/04/01 08:39:35;;;;;;;29.05;15.88;;;;;;;15.18;73.63;99782.13;5562444;23;19933;31
2023/04/01 08:42:29;;;;;;;26.27;16.08;;;;;;;15.21;74.12;99777.91;5346782;23;20036;-95
2023/04/01 08:45:21;;;;;;;26.95;15.15;;;;;;;15.47;72.05;99782.47;4940806;29;20406;-93
2023/04/01 08:47:55;;;;;;;25.05;14.38;;;;;;;15.66;70.45;99784.81;4955754;29;20112;-94
2023/04/01 08:50:59;;;;;;;26.00;14.05;;;;;;;15.77;69.33;99773.34;4933410;28;20070;-94
2023/04/01 08:53:44;;;;;;;22.27;13.57;;;;;;;16.04;68.83;99788.59;4929928;28;20055;-89
2023/04/01 08:56:23;;;;;;;25.42;13.35;;;;;;;15.92;69.23;99788.50;4942244;28;20050;-93
2023/04/01 08:59:09;;;;;;;29.10;15.15;;;;;;;16.14;69.79;99792.94;4958633;28;20074;-92
2023/04/01 09:01:53;;;;;;;23.70;14.18;;;;;;;15.91;69.00;99795.16;4939085;28;20054;-92
2023/04/01 09:05:14;;;;;;;28.02;15.13;;;;;;;15.85;70.76;99797.34;4952999;29;20164;-94
2023/04/01 09:08:12;;;;;;;26.17;15.82;;;;;;;16.01;69.69;99800.31;4922649;29;20062;-93
2023/04/01 09:10:58;;;;;;;35.20;17.50;;;;;;;16.00;71.74;99804.22;4938530;29;20063;-91
2023/04/01 09:13:59;;;;;;;30.88;17.05;;;;;;;16.07;69.34;99814.72;4942519;29;20055;-91
2023/04/01 09:17:07;;;;;;;29.07;16.53;;;;;;;16.22;69.91;99803.09;4956521;28;20466;-90
2023/04/01 09:20:10;;;;;;;36.35;15.68;;;;;;;16.47;68.52;99800.44;4940903;28;20306;-90
2023/04/01 09:22:47;;;;;;;75.57;25.50;;;;;;;16.68;67.96;99801.53;4965478;28;20054;-91
2023/04/01 09:25:41;;;;;;;69.82;21.40;;;;;;;16.69;69.08;99800.38;4957242;28;20494;-90
2023/04/01 09:28:18;;;;;;;41.58;17.98;;;;;;;16.49;69.94;99794.56;4939751;28;20038;-94
2023/04/01 09:30:49;;;;;;;65.90;22.45;;;;;;;16.77;70.01;99788.44;4941945;28;20054;-92
2023/04/01 09:33:43;;;;;;;35.47;17.27;;;;;;;16.48;68.24;99782.72;4939205;28;20068;-90
2023/04/01 09:36:15;;;;;;;;;;;;;;;16.86;68.44;99789.16;4963692;28;20050;-90
2023/04/01 09:38:57;;;;;;;33.72;16.58;;;;;;;17.01;67.52;99792.41;4939729;28;20309;-90
2023/04/01 09:41:46;;;;;;;31.38;16.00;;;;;;;17.00;68.31;99793.53;4945567;28;20065;-91
2023/04/01 09:44:27;;;;;;;29.08;16.40;;;;;;;17.13;66.00;99786.94;4937985;28;20082;-90
2023/04/01 09:47:42;;;;;;;27.40;15.73;;;;;;;17.39;64.96;99790.50;4971402;28;20516;-90
2023/04/01 09:50:23;;;;;;;25.50;15.80;;;;;;;17.30;65.12;99796.94;4947645;28;20047;-91
2023/04/01 09:53:02;;;;;;;27.35;15.60;;;;;;;17.37;63.70;99787.28;4960417;28;20055;-90
2023/04/01 09:56:08;;;;;;;27.70;14.88;;;;;;;17.50;64.89;99790.84;4954894;28;20513;-90
2023/04/01 09:59:23;;;;;;;24.88;15.10;;;;;;;17.65;62.10;99790.13;4950940;28;20062;-89
2023/04/01 10:02:52;;;;;;;22.58;13.95;;;;;;;17.78;62.11;99796.47;4900832;29;20051;-89
2023/04/01 10:05:52;;;;;;;11.60;6.72;;;;;;;17.79;53.36;99788.97;4919913;28;20061;-91
2023/04/01 10:08:30;;;;;;;14.05;7.85;;;;;;;17.92;54.23;99787.78;4930336;28;20055;-91
2023/04/01 10:11:23;;;;;;;7.10;4.70;;;;;;;17.92;51.56;99775.91;4945644;28;20047;-90
2023/04/01 10:14:03;;;;;;;4.22;2.78;;;;;;;18.19;49.40;99782.66;4939968;28;20426;-89
2023/04/01 10:16:54;;;;;;;3.60;2.42;;;;;;;18.28;48.64;99776.97;4934271;28;20534;-84
2023/04/01 10:20:10;;;;;;;4.13;2.40;;;;;;;18.24;48.25;99779.66;4967852;28;20402;-85
2023/04/01 10:23:08;;;;;;;3.03;2.15;;;;;;;18.27;46.35;99775.38;4925107;28;20070;-85
2023/04/01 10:25:57;;;;;;;3.63;1.75;;;;;;;18.17;45.72;99784.97;4936536;28;20038;-85
2023/04/01 10:28:47;;;;;;;3.42;2.10;;;;;;;18.34;45.24;99777.53;4953329;28;20047;-86
2023/04/01 10:31:57;;;;;;;2.33;2.00;;;;;;;18.44;45.78;99765.97;4970589;28;20046;-84
2023/04/01 10:34:44;;;;;;;5.70;3.42;;;;;;;18.46;44.89;99771.13;4972478;28;20418;-85
2023/04/01 10:37:40;;;;;;;5.78;3.10;;;;;;;18.77;44.46;99770.38;4972223;28;20054;-84
2023/04/01 10:40:38;;;;;;;3.03;2.72;;;;;;;19.14;46.28;99769.38;4957143;28;20051;-84
2023/04/01 10:43:37;;;;;;;5.78;3.20;;;;;;;19.02;46.74;99770.22;4971141;28;20414;-88
2023/04/01 10:46:34;;;;;;;5.30;3.72;;;;;;;18.84;48.17;99771.75;4940805;28;20058;-86
2023/04/01 10:49:34;;;;;;;5.85;3.00;;;;;;;18.80;46.30;99766.09;4933666;28;20395;-88
2023/04/01 10:52:38;;;;;;;5.35;3.63;;;;;;;19.01;46.56;99757.53;4971105;28;20035;-88
2023/04/01 10:55:37;;;;;;;5.10;3.50;;;;;;;19.14;47.13;99755.50;4955393;28;20054;-92
2023/04/01 10:58:56;;;;;;;5.70;3.65;;;;;;;19.41;46.85;99749.41;4935878;28;20055;-92
2023/04/01 11:01:55;;;;;;;4.20;3.28;;;;;;;19.45;46.51;99741.94;4972007;28;20046;-91
2023/04/01 11:05:23;;;;;;;5.00;3.80;;;;;;;19.50;46.32;99743.66;4907409;29;20101;-90
2023/04/01 11:08:22;;;;;;;6.72;3.70;;;;;;;19.48;46.51;99735.69;4954901;28;20417;-90
2023/04/01 11:11:28;;;;;;;5.47;3.92;;;;;;;19.66;43.85;99733.31;4955022;28;20059;-89
2023/04/01 11:14:31;;;;;;;5.25;3.08;;;;;;;19.65;43.45;99739.22;4971721;28;20047;-88
2023/04/01 11:17:27;;;;;;;4.07;3.20;;;;;;;19.69;41.87;99737.31;4947261;28;20054;-89
2023/04/01 11:20:37;;;;;;;4.10;2.47;;;;;;;19.88;39.93;99742.09;4946678;28;20035;-89
2023/04/01 11:23:25;;;;;;;3.25;2.08;;;;;;;19.69;38.33;99740.09;4944872;28;20043;-89
2023/04/01 11:26:12;;;;;;;2.47;2.03;;;;;;;19.70;38.96;99741.72;4971431;28;20062;-87
2023/04/01 11:29:41;;;;;;;2.15;1.83;;;;;;;20.11;38.65;99736.66;4966846;28;20048;-88
2023/04/01 11:32:50;;;;;;;2.28;1.55;;;;;;;19.78;36.56;99737.91;4955036;28;20081;-88
2023/04/01 11:35:48;;;;;;;2.03;1.40;;;;;;;20.26;37.24;99734.16;4966821;28;20054;-87
2023/04/01 11:38:57;;;;;;;1.10;1.02;;;;;;;20.41;35.34;99732.44;4954121;28;20046;-88
2023/04/01 11:42:10;;;;;;;2.38;1.60;;;;;;;20.63;33.71;99730.88;4971492;28;20065;-88
2023/04/01 11:45:23;;;;;;;1.63;1.52;;;;;;;20.93;35.20;99732.22;4971040;28;20047;-88
2023/04/01 11:48:17;;;;;;;2.92;2.13;;;;;;;21.09;34.70;99734.84;4969669;28;20038;-88
2023/04/01 11:50:54;;;;;;;2.15;1.67;;;;;;;21.39;35.27;99727.72;4955895;28;20050;-89
2023/04/01 11:53:29;;;;;;;2.35;2.05;;;;;;;21.16;35.50;99734.97;4953992;28;20055;-92
2023/04/01 11:56:28;;;;;;;2.03;1.73;;;;;;;20.92;37.21;99717.50;4929813;29;20058;-91
2023/04/01 11:59:08;;;;;;;3.33;2.17;;;;;;;21.21;36.53;99731.84;4961939;28;20051;-90
2023/04/01 12:02:08;;;;;;;4.65;2.22;;;;;;;21.22;37.38;99718.75;4934311;28;20049;-89
2023/04/01 12:05:06;;;;;;;2.40;1.90;;;;;;;21.26;37.24;99721.59;4969545;28;20039;-88
2023/04/01 12:07:52;;;;;;;5.72;2.95;;;;;;;21.75;36.82;99722.69;4968444;28;20066;-90
2023/04/01 12:10:44;;;;;;;2.85;2.55;;;;;;;21.01;36.34;99716.44;4969786;28;20043;-90
2023/04/01 12:13:18;;;;;;;3.05;2.75;;;;;;;20.96;36.15;99714.75;4955806;28;20410;-88
2023/04/01 12:15:56;;;;;;;7.03;2.90;;;;;;;21.50;37.04;99719.56;4957729;28;20402;-88
2023/04/01 12:19:00;;;;;;;5.80;2.65;;;;;;;21.67;35.35;99715.41;4946394;29;20055;-93
2023/04/01 12:21:43;;;;;;;5.32;2.65;;;;;;;21.70;34.71;99707.13;4949399;28;20055;-89
2023/04/01 12:24:30;;;;;;;2.13;1.92;;;;;;;21.92;33.39;99710.19;4975093;28;20049;-93
2023/04/01 12:27:08;;;;;;;2.58;1.95;;;;;;;22.13;30.17;99706.84;4957677;28;20054;-91
2023/04/01 12:30:06;;;;;;;2.20;2.00;;;;;;;22.26;30.77;99701.03;4958077;28;20062;-92
2023/04/01 12:33:05;;;;;;;2.38;1.85;;;;;;;22.28;30.15;99696.66;4974251;28;20059;-88
2023/04/01 12:36:08;;;;;;;3.53;2.00;;;;;;;22.66;28.90;99705.03;4942265;28;20051;-93
2023/04/01 12:38:52;;;;;;;2.33;1.67;;;;;;;22.70;31.43;99702.28;4975858;28;20401;-89
2023/04/01 12:41:26;;;;;;;2.42;1.75;;;;;;;22.61;31.45;99699.00;4956519;28;20069;-89
2023/04/01 12:44:02;;;;;;;3.83;2.15;;;;;;;22.26;31.12;99690.69;4960475;28;20042;-89
2023/04/01 12:46:57;;;;;;;1.90;1.70;;;;;;;22.62;30.92;99689.47;4952376;28;20046;-89
2023/04/01 12:49:31;;;;;;;2.45;1.85;;;;;;;22.76;29.10;99692.38;4955780;29;20063;-89
2023/04/01 12:52:08;;;;;;;;;;;;;;;22.89;31.30;99694.84;4962946;28;20398;-89
2023/04/01 12:54:49;;;;;;;3.15;2.20;;;;;;;22.76;29.73;99692.38;4955496;29;19938;-85
2023/04/01 12:57:23;;;;;;;2.33;2.13;;;;;;;22.71;29.38;99695.50;4924586;29;20054;-91
2023/04/01 13:00:10;;;;;;;;;;;;;;;22.95;29.26;99687.72;4942256;28;20083;-93
2023/04/01 13:02:50;;;;;;;2.72;2.38;;;;;;;22.86;29.80;99685.28;4956541;28;19922;-91
2023/04/01 13:05:36;;;;;;;4.03;2.65;;;;;;;22.91;29.95;99681.31;4955053;29;20051;-93
2023/04/01 13:08:11;;;;;;;5.15;3.10;;;;;;;22.80;28.92;99684.84;4940718;28;20829;-92
2023/04/01 13:10:43;;;;;;;3.13;2.55;;;;;;;22.78;30.63;99673.25;4956486;28;20050;-82
2023/04/01 13:13:47;;;;;;;5.40;3.10;;;;;;;23.06;28.48;99679.44;4941032;28;20058;-88
2023/04/01 13:16:29;;;;;;;4.00;2.70;;;;;;;23.38;29.87;99669.69;4947840;28;20054;-90
2023/04/01 13:19:30;;;;;;;3.53;2.58;;;;;;;23.28;30.57;99677.59;4951933;28;20136;-92
2023/04/01 13:22:24;;;;;;;3.70;3.30;;;;;;;23.71;29.87;99665.88;4941324;28;20058;-91
2023/04/01 13:25:04;;;;;;;4.57;3.17;;;;;;;23.80;28.75;99664.72;4958562;28;20038;-90